VOHY/HYD METAR and TAF weather

Enter ICAO airport designator
Station Type Date Time Source
VOHY METAR 2020/07/08 16:30 UTC NOAA

VOHY 081630Z 28003KT 5000 BR SCT015 BKN100 24/23 Q1011 NOSIG


Station Type Date Time Source
VOHY Decoded METAR 2020/07/08 16:30 UTC NOAA

Hyderabad Airport, India (VOHY) 17-27N 078-28E 545M
Jul 08, 2020 - 12:30 PM EDT / 2020.07.08 1630 UTC
Wind: from the W (280 degrees) at 3 MPH (3 KT):0
Visibility: 3 mile(s):0
Sky conditions: mostly cloudy
Weather: mist
Temperature: 75 F (24 C)
Dew Point: 73 F (23 C)
Relative Humidity: 94%
Pressure (altimeter): 29.85 in. Hg (1011 hPa)
ob: VOHY 081630Z 28003KT 5000 BR SCT015 BKN100 24/23 Q1011 NOSIG
cycle: 16

Station Type Date Time Source
VOHY TAF 2020/06/21 06:00 UTC NOAA

TAF VOHY 210500Z 2106/2115 25010G20KT 5000 HZ BR RA SCT015 SCT025 BKN100
TEMPO 2108/2115 25008KT 3000 TSRA SCT015 SCT025 FEW030CB BKN100

Example: see airport list